createdAt,value
2023-04-04T00:01:50.124Z,0.75
2023-04-04T00:04:17.793Z,1.10
2023-04-04T00:06:45.924Z,1.00
2023-04-04T00:09:13.325Z,1.13
2023-04-04T00:11:42.605Z,1.10
2023-04-04T00:14:09.972Z,1.30
2023-04-04T00:16:37.362Z,1.20
2023-04-04T00:19:04.762Z,0.85
2023-04-04T00:21:32.427Z,1.48
2023-04-04T00:23:59.785Z,1.30
2023-04-04T00:26:27.457Z,1.35
2023-04-04T00:28:54.819Z,1.10
2023-04-04T00:31:22.645Z,1.23
2023-04-04T00:33:49.911Z,1.30
2023-04-04T00:36:17.617Z,1.20
2023-04-04T00:38:44.883Z,1.23
2023-04-04T00:41:12.399Z,1.10
2023-04-04T00:43:39.736Z,1.13
2023-04-04T00:46:08.864Z,1.10
2023-04-04T00:48:36.606Z,0.98
2023-04-04T00:51:03.874Z,1.00
2023-04-04T00:53:32.272Z,1.05
2023-04-04T00:55:59.704Z,1.25
2023-04-04T00:58:27.340Z,1.02
2023-04-04T01:00:54.666Z,1.38
2023-04-04T01:03:22.049Z,1.35
2023-04-04T01:05:49.406Z,1.05
2023-04-04T01:08:19.682Z,1.00
2023-04-04T01:10:47.292Z,0.80
2023-04-04T01:13:16.145Z,1.35
2023-04-04T01:15:43.735Z,1.00
2023-04-04T01:18:12.570Z,0.90
2023-04-04T01:20:43.222Z,0.93
2023-04-04T01:23:10.631Z,0.88
2023-04-04T01:25:37.874Z,0.88
2023-04-04T01:28:05.196Z,0.90
2023-04-04T01:30:33.320Z,0.80
2023-04-04T01:33:02.895Z,0.65
2023-04-04T01:35:53.625Z,0.82
2023-04-04T01:38:29.863Z,0.98
2023-04-04T01:41:02.722Z,0.75
2023-04-04T01:43:33.186Z,0.98
2023-04-04T01:46:00.838Z,0.98
2023-04-04T01:48:28.200Z,1.00
2023-04-04T01:50:55.622Z,0.70
2023-04-04T01:53:22.860Z,0.77
2023-04-04T01:55:50.089Z,0.80
2023-04-04T01:58:17.347Z,0.95
2023-04-04T02:00:44.620Z,0.82
2023-04-04T02:03:12.070Z,1.00
2023-04-04T02:05:39.380Z,0.57
2023-04-04T02:08:06.743Z,0.85
2023-04-04T02:10:33.972Z,0.80
2023-04-04T02:13:01.268Z,0.70
2023-04-04T02:15:28.513Z,0.90
2023-04-04T02:17:55.994Z,0.80
2023-04-04T02:20:23.324Z,0.73
2023-04-04T02:22:54.264Z,0.90
2023-04-04T02:27:48.926Z,1.13
2023-04-04T02:30:16.337Z,0.93
2023-04-04T02:32:43.646Z,1.00
2023-04-04T02:35:10.948Z,0.82
2023-04-04T02:37:38.190Z,0.63
2023-04-04T02:40:05.700Z,1.08
2023-04-04T02:42:32.997Z,1.20
2023-04-04T02:45:00.865Z,0.77
2023-04-04T02:47:28.767Z,0.90
2023-04-04T02:49:56.204Z,0.63
2023-04-04T02:52:23.476Z,0.63
2023-04-04T02:54:50.873Z,0.70
2023-04-04T02:57:18.118Z,0.80
2023-04-04T02:59:45.508Z,1.10
2023-04-04T03:02:12.873Z,1.40
2023-04-04T03:04:40.181Z,1.15
2023-04-04T03:07:07.422Z,1.20
2023-04-04T03:09:34.719Z,1.00
2023-04-04T03:12:02.276Z,0.98
2023-04-04T03:14:30.189Z,1.10
2023-04-04T03:16:57.576Z,1.13
2023-04-04T03:19:25.477Z,0.95
2023-04-04T03:21:52.712Z,1.40
2023-04-04T03:24:19.966Z,1.17
2023-04-04T03:26:47.273Z,1.42
2023-04-04T03:29:14.551Z,1.40
2023-04-04T03:31:41.856Z,1.15
2023-04-04T03:34:09.454Z,1.50
2023-04-04T03:36:36.708Z,1.10
2023-04-04T03:39:04.195Z,0.95
2023-04-04T03:41:31.503Z,1.20
2023-04-04T03:43:58.774Z,1.00
2023-04-04T03:46:26.340Z,1.02
2023-04-04T03:48:53.651Z,0.70
2023-04-04T03:51:24.817Z,0.88
2023-04-04T03:53:52.125Z,0.75
2023-04-04T03:56:19.636Z,0.80
2023-04-04T03:58:46.909Z,1.25
2023-04-04T04:01:14.194Z,0.75
2023-04-04T04:03:41.914Z,0.77
2023-04-04T04:06:09.127Z,1.58
2023-04-04T04:08:38.161Z,0.90
2023-04-04T04:11:06.025Z,0.90
2023-04-04T04:13:33.369Z,0.90
2023-04-04T04:16:00.629Z,1.10
2023-04-04T04:18:27.994Z,1.33
2023-04-04T04:21:05.181Z,0.73
2023-04-04T04:23:32.506Z,1.10
2023-04-04T04:25:59.822Z,1.10
2023-04-04T04:28:34.067Z,1.00
2023-04-04T04:31:07.720Z,1.13
2023-04-04T04:33:35.454Z,1.13
2023-04-04T04:36:07.338Z,1.15
2023-04-04T04:38:34.755Z,0.98
2023-04-04T04:41:02.484Z,1.38
2023-04-04T04:43:29.756Z,1.27
2023-04-04T04:45:57.219Z,1.48
2023-04-04T04:48:24.477Z,1.02
2023-04-04T04:50:52.149Z,1.10
2023-04-04T04:53:19.467Z,1.10
2023-04-04T04:55:46.896Z,1.33
2023-04-04T04:58:16.963Z,1.27
2023-04-04T05:00:44.260Z,0.80
2023-04-04T05:03:11.603Z,1.10
2023-04-04T05:05:38.943Z,1.15
2023-04-04T05:08:06.302Z,1.27
2023-04-04T05:10:33.625Z,1.13
2023-04-04T05:13:00.845Z,1.33
2023-04-04T05:15:31.654Z,1.17
2023-04-04T05:17:59.479Z,1.52
2023-04-04T05:20:27.272Z,1.10
2023-04-04T05:22:54.526Z,0.98
2023-04-04T05:25:21.822Z,1.05
2023-04-04T05:27:49.208Z,1.30
2023-04-04T05:30:17.119Z,1.48
2023-04-04T05:32:47.552Z,1.42
2023-04-04T05:35:14.914Z,1.90
2023-04-04T05:37:42.719Z,1.50
2023-04-04T05:40:10.478Z,2.63
2023-04-04T05:42:37.712Z,1.98
2023-04-04T05:45:05.539Z,2.03
2023-04-04T05:47:33.012Z,1.60
2023-04-04T05:50:01.133Z,1.30
2023-04-04T05:52:28.540Z,1.90
2023-04-04T05:54:56.048Z,0.80
2023-04-04T05:57:24.236Z,1.15
2023-04-04T05:59:52.553Z,1.73
2023-04-04T06:02:20.013Z,1.15
2023-04-04T06:04:47.364Z,1.60
2023-04-04T06:07:14.931Z,1.52
2023-04-04T06:09:42.206Z,1.33
2023-04-04T06:12:09.473Z,1.50
2023-04-04T06:14:37.114Z,1.20
2023-04-04T06:17:04.845Z,1.40
2023-04-04T06:19:32.269Z,1.35
2023-04-04T06:21:59.526Z,1.50
2023-04-04T06:24:27.434Z,1.77
2023-04-04T06:26:54.780Z,1.50
2023-04-04T06:29:22.036Z,0.75
2023-04-04T06:31:50.634Z,1.10
2023-04-04T06:34:17.950Z,1.05
2023-04-04T06:36:45.213Z,1.27
2023-04-04T06:39:12.502Z,1.48
2023-04-04T06:41:39.749Z,1.50
2023-04-04T06:44:07.034Z,1.90
2023-04-04T06:46:34.482Z,1.15
2023-04-04T06:49:01.740Z,1.75
2023-04-04T06:51:29.099Z,1.58
2023-04-04T06:53:59.579Z,1.05
2023-04-04T06:56:27.160Z,1.67
2023-04-04T06:58:54.637Z,0.85
2023-04-04T07:01:22.018Z,1.15
2023-04-04T07:03:49.419Z,1.20
2023-04-04T07:06:16.741Z,0.90
2023-04-04T07:08:44.043Z,0.82
2023-04-04T07:11:11.678Z,1.27
2023-04-04T07:13:38.969Z,0.73
2023-04-04T07:16:06.457Z,0.80
2023-04-04T07:18:35.764Z,0.82
2023-04-04T07:21:03.030Z,0.75
2023-04-04T07:23:32.522Z,0.63
2023-04-04T07:25:59.773Z,0.68
2023-04-04T07:28:27.213Z,1.20
2023-04-04T07:30:54.500Z,0.77
2023-04-04T07:33:22.111Z,1.08
2023-04-04T07:35:49.405Z,0.80
2023-04-04T07:38:16.765Z,0.85
2023-04-04T07:40:46.453Z,0.85
2023-04-04T07:43:13.711Z,1.00
2023-04-04T07:45:41.332Z,1.30
2023-04-04T07:48:08.712Z,1.00
2023-04-04T07:50:36.004Z,1.00
2023-04-04T07:53:03.246Z,1.27
2023-04-04T07:55:30.521Z,1.80
2023-04-04T07:57:58.604Z,1.20
2023-04-04T08:00:26.641Z,1.50
2023-04-04T08:02:54.756Z,1.17
2023-04-04T08:05:22.172Z,1.40
2023-04-04T08:07:49.447Z,1.13
2023-04-04T08:10:17.917Z,1.30
2023-04-04T08:12:45.498Z,1.77
2023-04-04T08:15:12.845Z,1.75
2023-04-04T08:17:40.732Z,1.05
2023-04-04T08:20:08.269Z,1.38
2023-04-04T08:22:35.580Z,1.75
2023-04-04T08:25:03.295Z,2.03
2023-04-04T08:27:30.525Z,1.58
2023-04-04T08:29:57.862Z,1.73
2023-04-04T08:32:25.293Z,1.42
2023-04-04T08:34:52.808Z,1.10
2023-04-04T08:37:20.118Z,1.30
2023-04-04T08:39:47.366Z,1.52
2023-04-04T08:42:17.754Z,1.17
2023-04-04T08:44:47.031Z,1.05
2023-04-04T08:47:14.648Z,1.52
2023-04-04T08:49:44.006Z,1.27
2023-04-04T08:52:12.916Z,1.30
2023-04-04T08:54:41.154Z,1.65
2023-04-04T08:57:08.577Z,1.50
2023-04-04T08:59:36.258Z,1.25
2023-04-04T09:02:09.662Z,1.38
2023-04-04T09:04:37.062Z,1.20
2023-04-04T09:07:05.297Z,1.25
2023-04-04T09:09:33.013Z,1.45
2023-04-04T09:12:02.042Z,1.60
2023-04-04T09:14:30.942Z,1.30
2023-04-04T09:16:58.463Z,1.50
2023-04-04T09:19:26.582Z,1.23
2023-04-04T09:21:54.235Z,1.35
2023-04-04T09:24:21.536Z,1.27
2023-04-04T09:26:49.836Z,1.05
2023-04-04T09:29:21.395Z,1.13
2023-04-04T09:31:49.671Z,1.10
2023-04-04T09:34:18.399Z,2.05
2023-04-04T09:36:46.345Z,2.60
2023-04-04T09:39:17.578Z,4.28
2023-04-04T09:41:46.292Z,3.60
2023-04-04T09:44:14.061Z,2.45
2023-04-04T09:46:41.558Z,2.15
2023-04-04T09:49:13.298Z,2.45
2023-04-04T09:51:42.671Z,1.90
2023-04-04T09:54:29.057Z,2.10
2023-04-04T09:56:57.675Z,1.33
2023-04-04T09:59:25.160Z,1.40
2023-04-04T10:01:53.547Z,1.60
2023-04-04T10:04:21.231Z,1.10
2023-04-04T10:06:48.741Z,1.13
2023-04-04T10:09:16.574Z,1.52
2023-04-04T10:11:43.879Z,1.00
2023-04-04T10:14:11.631Z,1.00
2023-04-04T10:16:39.246Z,0.82
2023-04-04T10:19:09.898Z,0.93
2023-04-04T10:21:37.212Z,1.48
2023-04-04T10:24:09.429Z,1.60
2023-04-04T10:26:39.500Z,1.50
2023-04-04T10:29:06.942Z,1.10
2023-04-04T10:31:35.179Z,1.30
2023-04-04T10:34:21.348Z,1.52
2023-04-04T10:36:48.602Z,0.93
2023-04-04T10:39:34.990Z,1.17
2023-04-04T10:42:05.972Z,1.27
2023-04-04T10:44:43.329Z,1.50
2023-04-04T10:47:10.712Z,1.60
2023-04-04T10:49:38.540Z,1.08
2023-04-04T10:52:06.360Z,1.42
2023-04-04T10:54:34.018Z,1.10
2023-04-04T10:57:01.370Z,1.00
2023-04-04T10:59:28.903Z,1.00
2023-04-04T11:01:58.290Z,1.10
2023-04-04T11:04:31.242Z,1.20
2023-04-04T11:07:07.608Z,1.30
2023-04-04T11:09:47.179Z,1.52
2023-04-04T11:12:23.382Z,1.10
2023-04-04T11:14:56.980Z,1.00
2023-04-04T11:17:42.862Z,1.00
2023-04-04T11:20:17.087Z,1.10
2023-04-04T11:22:45.863Z,1.05
2023-04-04T11:25:25.194Z,1.30
2023-04-04T11:27:56.735Z,1.00
2023-04-04T11:30:24.238Z,0.90
2023-04-04T11:33:03.963Z,1.20
2023-04-04T11:35:34.135Z,1.00
2023-04-04T11:38:02.089Z,1.50
2023-04-04T11:40:37.122Z,1.23
2023-04-04T11:43:08.558Z,0.93
2023-04-04T11:45:36.269Z,1.63
2023-04-04T11:48:07.164Z,0.80
2023-04-04T11:50:39.768Z,1.30
2023-04-04T11:53:10.797Z,1.30
2023-04-04T11:58:13.287Z,1.30
2023-04-04T12:00:44.218Z,1.02
2023-04-04T12:03:12.784Z,1.30
2023-04-04T12:05:41.230Z,1.42
2023-04-04T12:08:10.004Z,1.35
2023-04-04T12:10:37.973Z,1.40
2023-04-04T12:13:13.101Z,1.17
2023-04-04T12:15:40.708Z,1.15
2023-04-04T12:18:09.335Z,1.20
2023-04-04T12:20:41.642Z,1.10
2023-04-04T12:23:09.664Z,1.10
2023-04-04T12:25:40.375Z,1.27
2023-04-04T12:28:08.188Z,1.23
2023-04-04T12:30:35.605Z,1.02
2023-04-04T12:33:03.006Z,0.85
2023-04-04T12:35:31.534Z,1.13
2023-04-04T12:37:59.850Z,1.20
2023-04-04T12:40:30.532Z,1.52
2023-04-04T12:42:58.112Z,1.10
2023-04-04T12:45:28.012Z,1.10
2023-04-04T12:47:55.954Z,1.00
2023-04-04T12:50:28.550Z,1.42
2023-04-04T12:55:48.045Z,1.00
2023-04-04T12:58:18.956Z,0.82
2023-04-04T13:00:46.454Z,1.10
2023-04-04T13:03:15.683Z,1.00
2023-04-04T13:05:47.717Z,1.45
2023-04-04T13:08:15.596Z,1.20
2023-04-04T13:10:58.387Z,1.10
2023-04-04T13:13:36.405Z,1.10
2023-04-04T13:16:11.950Z,0.80
2023-04-04T13:18:42.527Z,1.20
2023-04-04T13:21:10.520Z,1.20
2023-04-04T13:23:41.926Z,1.30
2023-04-04T13:26:10.811Z,1.50
2023-04-04T13:28:38.166Z,1.45
2023-04-04T13:31:10.201Z,1.00
2023-04-04T13:33:37.988Z,1.40
2023-04-04T13:36:07.974Z,1.10
2023-04-04T13:38:35.335Z,1.17
2023-04-04T13:41:02.665Z,1.75
2023-04-04T13:43:29.996Z,1.40
2023-04-04T13:45:59.550Z,1.30
2023-04-04T13:48:28.059Z,1.40
2023-04-04T13:50:55.737Z,1.50
2023-04-04T13:53:23.084Z,1.33
2023-04-04T13:56:16.232Z,1.33
2023-04-04T13:58:38.647Z,1.30
2023-04-04T14:01:07.056Z,1.50
2023-04-04T14:03:34.480Z,1.92
2023-04-04T14:08:49.107Z,2.17
2023-04-04T14:11:16.649Z,1.95
2023-04-04T14:13:43.999Z,1.67
2023-04-04T14:16:11.340Z,1.50
2023-04-04T14:18:38.712Z,1.35
2023-04-04T14:21:07.276Z,1.40
2023-04-04T14:23:34.638Z,1.65
2023-04-04T14:26:01.908Z,2.47
2023-04-04T14:28:29.299Z,2.00
2023-04-04T14:30:56.589Z,1.83
2023-04-04T14:33:23.952Z,1.50
2023-04-04T14:35:51.757Z,2.20
2023-04-04T14:38:19.093Z,1.98
2023-04-04T14:40:46.387Z,2.33
2023-04-04T14:43:13.618Z,2.50
2023-04-04T14:45:41.767Z,3.28
2023-04-04T14:48:09.437Z,2.38
2023-04-04T14:50:38.433Z,2.53
2023-04-04T14:53:05.678Z,3.03
2023-04-04T14:55:33.004Z,2.72
2023-04-04T14:58:02.620Z,2.58
2023-04-04T15:00:31.036Z,3.38
2023-04-04T15:02:58.435Z,2.47
2023-04-04T15:05:26.716Z,2.17
2023-04-04T15:07:54.128Z,2.28
2023-04-04T15:10:21.530Z,2.22
2023-04-04T15:12:48.810Z,3.05
2023-04-04T15:15:16.643Z,3.33
2023-04-04T15:17:43.914Z,2.78
2023-04-04T15:20:11.949Z,2.70
2023-04-04T15:22:40.822Z,2.72
2023-04-04T15:25:08.747Z,3.35
2023-04-04T15:27:36.608Z,3.00
2023-04-04T15:30:03.924Z,3.28
2023-04-04T15:32:31.262Z,3.15
2023-04-04T15:34:58.734Z,2.65
2023-04-04T15:37:26.628Z,2.20
2023-04-04T15:39:54.598Z,2.35
2023-04-04T15:42:21.999Z,2.30
2023-04-04T15:44:49.297Z,2.60
2023-04-04T15:47:17.102Z,3.20
2023-04-04T15:49:44.418Z,2.67
2023-04-04T15:52:12.387Z,3.10
2023-04-04T15:54:39.674Z,3.05
2023-04-04T15:57:06.991Z,2.60
2023-04-04T15:59:34.420Z,2.40
2023-04-04T16:02:01.799Z,3.30
2023-04-04T16:04:29.054Z,3.20
2023-04-04T16:06:56.352Z,3.88
2023-04-04T16:09:23.589Z,3.60
2023-04-04T16:11:50.909Z,3.00
2023-04-04T16:14:18.186Z,3.50
2023-04-04T16:16:48.565Z,3.67
2023-04-04T16:19:17.152Z,3.10
2023-04-04T16:21:44.775Z,3.08
2023-04-04T16:24:14.256Z,3.67
2023-04-04T16:26:47.671Z,2.83
2023-04-04T16:29:15.477Z,2.90
2023-04-04T16:31:43.009Z,3.50
2023-04-04T16:34:10.324Z,3.10
2023-04-04T16:36:37.654Z,2.47
2023-04-04T16:39:05.035Z,2.75
2023-04-04T16:41:32.366Z,2.85
2023-04-04T16:43:59.735Z,2.97
2023-04-04T16:46:27.520Z,3.58
2023-04-04T16:48:55.439Z,3.50
2023-04-04T16:51:22.677Z,3.00
2023-04-04T16:53:49.976Z,2.67
2023-04-04T16:56:17.254Z,3.00
2023-04-04T16:58:46.754Z,2.78
2023-04-04T17:01:15.407Z,3.10
2023-04-04T17:03:42.736Z,3.00
2023-04-04T17:06:10.064Z,3.78
2023-04-04T17:08:37.292Z,3.78
2023-04-04T17:11:04.613Z,4.10
2023-04-04T17:13:31.856Z,4.28
2023-04-04T17:15:59.104Z,4.03
2023-04-04T17:18:26.570Z,4.45
2023-04-04T17:20:53.913Z,4.10
2023-04-04T17:23:21.216Z,3.80
2023-04-04T17:25:48.485Z,4.90
2023-04-04T17:28:15.926Z,4.57
2023-04-04T17:30:43.331Z,4.35
2023-04-04T17:33:10.719Z,5.05
2023-04-04T17:35:38.011Z,4.72
2023-04-04T17:38:05.354Z,4.53
2023-04-04T17:40:32.631Z,4.00
2023-04-04T17:42:59.870Z,4.20
2023-04-04T17:45:27.633Z,3.97
2023-04-04T17:47:54.939Z,3.97
2023-04-04T17:50:22.650Z,3.50
2023-04-04T17:52:49.948Z,3.85
2023-04-04T17:55:18.025Z,4.00
2023-04-04T17:57:45.413Z,3.95
2023-04-04T18:00:13.587Z,3.92
2023-04-04T18:02:41.016Z,4.32
2023-04-04T18:05:10.248Z,4.88
2023-04-04T18:07:37.512Z,4.05
2023-04-04T18:10:04.895Z,3.72
2023-04-04T18:12:35.706Z,3.35
2023-04-04T18:17:31.447Z,2.97
2023-04-04T18:19:59.053Z,3.55
2023-04-04T18:22:27.186Z,3.25
2023-04-04T18:24:54.863Z,3.20
2023-04-04T18:27:22.112Z,3.65
2023-04-04T18:29:49.435Z,3.83
2023-04-04T18:32:16.717Z,3.97
2023-04-04T18:34:44.017Z,5.18
2023-04-04T18:37:12.401Z,6.10
2023-04-04T18:39:39.683Z,5.40
2023-04-04T18:42:06.967Z,5.15
2023-04-04T18:44:34.203Z,5.85
2023-04-04T18:47:05.046Z,5.50
2023-04-04T18:49:33.184Z,4.63
2023-04-04T18:52:00.480Z,5.10
2023-04-04T18:54:28.148Z,4.32
2023-04-04T18:56:57.213Z,4.38
2023-04-04T18:59:25.063Z,4.10
2023-04-04T19:01:56.491Z,4.07
2023-04-04T19:04:24.002Z,4.07
2023-04-04T19:06:52.483Z,4.18
2023-04-04T19:09:20.356Z,4.70
2023-04-04T19:11:48.110Z,3.85
2023-04-04T19:14:15.760Z,3.70
2023-04-04T19:16:43.057Z,4.25
2023-04-04T19:19:11.619Z,4.03
2023-04-04T19:21:38.844Z,4.20
2023-04-04T19:24:06.697Z,4.68
2023-04-04T19:26:33.924Z,5.00
2023-04-04T19:29:01.158Z,4.50
2023-04-04T19:31:32.956Z,4.93
2023-04-04T19:34:08.490Z,4.50
2023-04-04T19:36:37.644Z,3.60
2023-04-04T19:39:05.672Z,2.63
2023-04-04T19:41:33.163Z,2.80
2023-04-04T19:44:01.145Z,3.38
2023-04-04T19:46:33.976Z,3.08
2023-04-04T19:49:03.306Z,3.78
2023-04-04T19:51:30.566Z,3.50
2023-04-04T19:53:58.641Z,3.70
2023-04-04T19:56:30.122Z,3.35
2023-04-04T19:58:58.870Z,2.97
2023-04-04T20:01:42.652Z,2.95
2023-04-04T20:04:18.096Z,3.10
2023-04-04T20:06:51.556Z,3.58
2023-04-04T20:09:40.361Z,4.38
2023-04-04T20:12:10.355Z,4.28
2023-04-04T20:14:46.501Z,4.40
2023-04-04T20:17:13.977Z,7.20
2023-04-04T20:19:57.189Z,4.20
2023-04-04T20:22:24.570Z,4.05
2023-04-04T20:24:51.921Z,3.83
2023-04-04T20:27:24.024Z,4.30
2023-04-04T20:30:06.327Z,4.18
2023-04-04T20:32:47.914Z,4.00
2023-04-04T20:35:29.042Z,4.00
2023-04-04T20:40:48.619Z,3.47
2023-04-04T20:43:31.991Z,3.30
2023-04-04T20:46:01.234Z,3.28
2023-04-04T20:48:39.534Z,3.45
2023-04-04T20:51:23.916Z,2.90
2023-04-04T20:53:51.986Z,2.90
2023-04-04T20:56:37.850Z,3.03
2023-04-04T20:59:39.583Z,3.30
2023-04-04T21:02:15.992Z,3.45
2023-04-04T21:04:45.720Z,3.10
2023-04-04T21:07:33.414Z,3.13
2023-04-04T21:10:01.338Z,3.30
2023-04-04T21:12:28.836Z,2.85
2023-04-04T21:14:56.189Z,3.22
2023-04-04T21:17:23.635Z,3.55
2023-04-04T21:19:52.252Z,3.33
2023-04-04T21:22:19.808Z,3.97
2023-04-04T21:24:47.184Z,4.20
2023-04-04T21:27:33.096Z,3.60
2023-04-04T21:30:05.173Z,3.83
2023-04-04T21:32:33.855Z,3.47
2023-04-04T21:35:01.759Z,3.22
2023-04-04T21:37:29.245Z,3.17
2023-04-04T21:40:00.738Z,2.72
2023-04-04T21:42:31.408Z,3.30
2023-04-04T21:44:58.961Z,3.30
2023-04-04T21:47:31.916Z,3.45
2023-04-04T21:50:00.277Z,4.18
2023-04-04T21:52:27.580Z,4.38
2023-04-04T21:54:54.800Z,3.67
2023-04-04T21:57:22.047Z,3.40
2023-04-04T21:59:49.277Z,2.80
2023-04-04T22:02:16.528Z,2.13
2023-04-04T22:04:43.810Z,3.17
2023-04-04T22:07:11.117Z,2.75
2023-04-04T22:09:38.871Z,3.15
2023-04-04T22:12:16.077Z,3.28
2023-04-04T22:14:44.542Z,3.65
2023-04-04T22:17:22.858Z,3.10
2023-04-04T22:19:59.735Z,3.60
2023-04-04T22:22:29.944Z,2.97
2023-04-04T22:25:05.030Z,3.30
2023-04-04T22:27:36.056Z,3.42
2023-04-04T22:32:33.453Z,2.80
2023-04-04T22:35:01.205Z,3.03
2023-04-04T22:37:28.804Z,2.60
2023-04-04T22:39:56.170Z,3.15
2023-04-04T22:42:23.464Z,2.80
2023-04-04T22:44:50.805Z,3.20
2023-04-04T22:47:18.620Z,4.40
2023-04-04T22:49:49.090Z,4.32
2023-04-04T22:52:16.631Z,3.50
2023-04-04T22:54:43.965Z,2.92
2023-04-04T22:57:11.318Z,3.20
2023-04-04T22:59:38.950Z,2.75
2023-04-04T23:02:09.030Z,3.03
2023-04-04T23:04:36.342Z,2.15
2023-04-04T23:07:04.398Z,3.15
2023-04-04T23:09:31.692Z,2.97
2023-04-04T23:11:58.947Z,3.25
2023-04-04T23:14:31.000Z,3.20
2023-04-04T23:16:58.383Z,3.00
2023-04-04T23:19:25.691Z,2.90
2023-04-04T23:21:53.157Z,3.40
2023-04-04T23:24:20.430Z,3.90
2023-04-04T23:26:47.676Z,2.80
2023-04-04T23:29:15.388Z,2.85
2023-04-04T23:31:42.751Z,2.53
2023-04-04T23:34:10.194Z,3.35
2023-04-04T23:36:37.423Z,3.38
2023-04-04T23:39:04.840Z,3.88
2023-04-04T23:41:32.414Z,4.45
2023-04-04T23:43:59.662Z,3.85
2023-04-04T23:46:27.025Z,3.65
2023-04-04T23:48:54.369Z,3.72
2023-04-04T23:51:22.192Z,4.05
2023-04-04T23:53:49.482Z,4.90
2023-04-04T23:56:17.896Z,4.50
2023-04-04T23:58:45.138Z,3.70
